Bahia Mar, Texas
Current Conditions -  °F | °C
As of 5:53 AM on Saturday 25 Oct 2014 (Local Time) from KPIL Reporting Station
Clear Clear  
Wind Chill: 67°   Ceiling: Unl
Heat Index: 67°   Visibility: 8mi
Dew Point: 63°   Wind: 6mph
Humidity: 87%   Direction: 290°WNW
Pressure: 30.11"   Gusts: NA
Location:  26.0776°N, 97.3389°W
Report Text: KPIL 251053Z AUTO 29005KT 8SM CLR 19/17 A3011 RMK AO2 SLP196 T01940172
Loading
Personal Weather Stations






























Interactive Weather Map
Tropical Storm Tracking
New forecast layout! Learn more

10-Day Weather Forecast

Advertisements
Track Severe Weather on mobile